Archival Weather

Porter County Rgnl

Valparaiso, Indiana (KVPZ)

Report from: Monday, December 11, 2023 3:56 AM CST
Current time: Wednesday, April 24, 2024 1:56 PM CDT

Current weather – Weather history – Daily summaries
Weather forecast

Temperature-1.1°C (30.0°F)
Wind chill-4.9°C (23.2°F)
Dew point-5.6°C (21.9°F)
Winds 6 kts (3.1 m/s, 6.9 mph) West (260°)
Visibility10 mi. (16.1 km)
Clouds Ceiling: Overcast 2,400 ft. (732 m)
Altimeter30.11 in.Hg (1020 mB)
Relative humidity71 %
Density altitude-2,159 ft. (-658 m)
Sea-level pressure102.1 kPa (1021 mB, 30.14 in.Hg)
Remarks Fully automated report
Automated weather observing station with precipitation discriminator
Flight conditions Marginal Visual Meteorological Conditions
Raw dataKVPZ 110956Z AUTO 26006KT 10SM OVC024 M01/M06 A3011 RMK AO2 SLP206 T10111056
An error has occurred. This application may no longer respond until reloaded. Reload 🗙